Time;durP1;ratioP1;P1;durP2;ratioP2;P2;SDS_P1;SDS_P2;PMS_P1;PMS_P2;Temp;Humidity;BMP_temperature;BMP_pressure;BME280_temperature;BME280_humidity;BME280_pressure;Samples;Min_cycle;Max_cycle;Signal;HPM_P1;HPM_P2
2021/07/18 00:02:06;;;;;;;9.75;3.30;;;19.00;85.00;;;;;;5962946;39;19975;-71
2021/07/18 00:06:09;;;;;;;8.27;3.58;;;18.90;88.90;;;;;;5972504;39;20054;-70
2021/07/18 00:10:11;;;;;;;5.75;2.75;;;18.90;89.70;;;;;;5957521;39;20040;-70
2021/07/18 00:14:14;;;;;;;8.40;3.30;;;18.90;89.50;;;;;;5971016;39;20083;-71
2021/07/18 00:18:16;;;;;;;7.85;3.40;;;19.00;90.10;;;;;;5961973;39;20313;-71
2021/07/18 00:22:18;;;;;;;7.78;3.20;;;18.90;90.20;;;;;;5952054;39;20630;-72
2021/07/18 00:26:19;;;;;;;9.85;3.10;;;19.30;90.40;;;;;;5954956;39;20060;-70
2021/07/18 00:30:22;;;;;;;6.72;2.85;;;18.80;90.30;;;;;;5963649;39;20048;-71
2021/07/18 00:34:24;;;;;;;7.90;2.72;;;18.80;90.30;;;;;;5951442;39;20093;-71
2021/07/18 00:38:26;;;;;;;;;;;18.70;90.60;;;;;;5952550;39;20467;-71
2021/07/18 00:42:28;;;;;;;8.27;3.13;;;18.70;86.40;;;;;;5959759;39;20208;-70
2021/07/18 00:46:29;;;;;;;;;;;18.70;90.20;;;;;;5957682;39;20072;-71
2021/07/18 00:50:32;;;;;;;9.30;3.30;;;18.70;86.00;;;;;;5970819;39;19955;-71
2021/07/18 00:54:35;;;;;;;7.95;2.97;;;18.60;90.20;;;;;;5957532;39;20103;-71
2021/07/18 00:58:37;;;;;;;8.88;3.20;;;18.60;90.70;;;;;;5960693;39;20050;-71
2021/07/18 01:02:40;;;;;;;6.80;2.65;;;18.60;90.80;;;;;;5968234;39;20110;-71
2021/07/18 01:06:42;;;;;;;7.20;3.00;;;18.60;91.00;;;;;;5962224;39;20043;-71
2021/07/18 01:10:43;;;;;;;;;;;18.60;91.10;;;;;;5952814;39;20894;-71
2021/07/18 01:14:46;;;;;;;6.38;2.47;;;18.50;87.80;;;;;;5972800;39;20484;-71
2021/07/18 01:18:48;;;;;;;7.63;2.90;;;18.50;90.50;;;;;;5960965;39;20035;-70
2021/07/18 01:22:50;;;;;;;7.72;3.28;;;18.50;91.20;;;;;;5961422;39;20066;-71
2021/07/18 01:26:52;;;;;;;9.70;2.95;;;18.50;91.30;;;;;;5972923;39;20090;-71
2021/07/18 01:30:54;;;;;;;9.60;3.15;;;18.40;91.50;;;;;;5974354;39;20043;-71
2021/07/18 01:34:56;;;;;;;;;;;18.40;91.40;;;;;;5967032;39;20051;-71
2021/07/18 01:38:58;;;;;;;6.55;2.70;;;18.40;88.10;;;;;;5971812;39;20279;-71
2021/07/18 01:43:00;;;;;;;;;;;18.40;91.00;;;;;;5965062;39;20096;-71
2021/07/18 01:47:02;;;;;;;7.50;3.30;;;18.30;87.70;;;;;;5972242;39;20239;-71
2021/07/18 01:51:04;;;;;;;7.47;3.10;;;18.40;91.20;;;;;;5962238;39;20080;-71
2021/07/18 01:55:07;;;;;;;11.15;3.03;;;18.40;91.40;;;;;;5963315;39;20475;-71
2021/07/18 01:59:12;;;;;;;10.55;3.30;;;18.40;91.30;;;;;;5958281;39;20059;-70
2021/07/18 02:03:14;;;;;;;11.02;3.67;;;18.40;91.60;;;;;;5956926;39;20076;-71
2021/07/18 02:07:19;;;;;;;9.00;2.90;;;18.00;91.50;;;;;;5960628;39;20070;-71
2021/07/18 02:11:21;;;;;;;7.20;3.55;;;18.10;91.50;;;;;;5961411;39;20132;-71
2021/07/18 02:15:23;;;;;;;8.52;3.05;;;18.30;91.80;;;;;;5972961;39;20102;-70
2021/07/18 02:19:29;;;;;;;11.25;3.45;;;18.20;92.00;;;;;;5969659;39;20056;-70
2021/07/18 02:23:31;;;;;;;10.18;3.30;;;18.30;91.70;;;;;;5972359;39;20105;-71
2021/07/18 02:27:33;;;;;;;7.78;3.40;;;18.20;92.10;;;;;;5960006;39;20072;-71
2021/07/18 02:31:35;;;;;;;8.10;3.08;;;18.20;91.90;;;;;;5964220;39;20052;-70
2021/07/18 02:35:37;;;;;;;12.35;3.40;;;18.10;92.00;;;;;;5953137;39;20036;-71
2021/07/18 02:39:39;;;;;;;15.60;4.00;;;18.10;92.00;;;;;;5958968;39;20359;-71
2021/07/18 02:43:41;;;;;;;7.47;3.47;;;18.10;91.90;;;;;;5956696;39;20683;-71
2021/07/18 02:47:43;;;;;;;8.88;3.30;;;18.10;92.00;;;;;;5973881;39;20044;-71
2021/07/18 02:51:45;;;;;;;8.38;3.10;;;18.10;92.20;;;;;;5972465;39;20044;-71
2021/07/18 02:55:47;;;;;;;8.93;3.13;;;18.10;92.10;;;;;;5964818;39;20040;-72
2021/07/18 02:59:50;;;;;;;9.07;3.15;;;18.20;92.00;;;;;;5963900;39;20084;-71
2021/07/18 03:03:52;;;;;;;12.65;3.42;;;18.20;91.90;;;;;;5972171;39;20039;-71
2021/07/18 03:07:54;;;;;;;13.05;3.35;;;18.20;92.10;;;;;;5970531;39;20040;-71
2021/07/18 03:11:55;;;;;;;;;;;18.10;92.00;;;;;;5973315;39;20048;-71
2021/07/18 03:15:58;;;;;;;12.60;3.60;;;18.00;90.10;;;;;;5972652;39;19937;-72
2021/07/18 03:20:02;;;;;;;14.38;3.83;;;18.00;91.80;;;;;;5971163;39;20039;-71
2021/07/18 03:24:04;;;;;;;9.38;3.63;;;18.00;92.00;;;;;;5961441;39;20128;-71
2021/07/18 03:28:06;;;;;;;8.98;3.13;;;18.00;92.10;;;;;;5959267;39;20071;-71
2021/07/18 03:32:08;;;;;;;11.00;4.32;;;18.00;92.20;;;;;;5962379;39;20156;-71
2021/07/18 03:36:10;;;;;;;;;;;18.00;92.00;;;;;;5969790;39;20412;-70
2021/07/18 03:40:15;;;;;;;7.97;3.35;;;18.00;90.50;;;;;;5972766;39;19951;-71
2021/07/18 03:44:17;;;;;;;8.52;3.53;;;17.90;91.90;;;;;;5973257;39;20032;-71
2021/07/18 03:48:18;;;;;;;8.02;3.28;;;18.00;92.20;;;;;;5964474;39;20080;-71
2021/07/18 03:52:20;;;;;;;;;;;17.90;92.10;;;;;;5963252;39;20119;-70
2021/07/18 03:56:22;;;;;;;11.18;3.70;;;17.90;90.20;;;;;;5963312;39;19932;-70
2021/07/18 04:00:24;;;;;;;;;;;17.90;91.80;;;;;;5963036;39;20063;-70
2021/07/18 04:04:26;;;;;;;13.10;4.13;;;17.90;90.00;;;;;;5968291;39;20010;-70
2021/07/18 04:08:28;;;;;;;13.77;4.10;;;17.90;91.70;;;;;;5967666;39;20780;-70
2021/07/18 04:12:30;;;;;;;11.50;3.47;;;17.90;92.10;;;;;;5966627;39;20063;-70
2021/07/18 04:16:32;;;;;;;;;;;17.90;92.10;;;;;;5969258;39;20611;-69
2021/07/18 04:20:34;;;;;;;12.33;3.93;;;17.80;90.40;;;;;;5968339;39;20266;-70
2021/07/18 04:24:36;;;;;;;;;;;17.70;92.00;;;;;;5950379;39;20104;-69
2021/07/18 04:28:38;;;;;;;15.30;4.43;;;17.70;90.20;;;;;;5970830;39;19968;-69
2021/07/18 04:32:40;;;;;;;13.38;4.00;;;17.70;92.10;;;;;;5967447;39;20589;-70
2021/07/18 04:36:42;;;;;;;11.30;3.63;;;17.70;92.50;;;;;;5959689;39;20080;-69
2021/07/18 04:40:44;;;;;;;15.73;4.93;;;17.70;92.60;;;;;;5951038;39;20466;-70
2021/07/18 04:44:45;;;;;;;10.98;3.42;;;17.80;92.70;;;;;;5965295;39;20062;-70
2021/07/18 04:48:47;;;;;;;23.95;5.55;;;17.80;93.20;;;;;;5975037;39;20118;-70
2021/07/18 04:52:50;;;;;;;16.42;4.10;;;17.80;93.00;;;;;;5972795;39;20087;-70
2021/07/18 04:56:51;;;;;;;13.63;4.15;;;17.80;93.30;;;;;;5973696;39;20076;-70
2021/07/18 05:00:53;;;;;;;14.30;4.30;;;17.90;93.40;;;;;;5973492;39;20079;-70
2021/07/18 05:04:55;;;;;;;12.93;3.97;;;18.00;93.50;;;;;;5964330;39;20503;-70
2021/07/18 05:08:57;;;;;;;19.95;4.68;;;18.00;93.50;;;;;;5972050;39;20044;-70
2021/07/18 05:12:59;;;;;;;17.55;3.97;;;18.10;94.00;;;;;;5971190;39;20330;-69
2021/07/18 05:17:01;;;;;;;13.40;3.60;;;18.00;93.80;;;;;;5960966;39;20097;-69
2021/07/18 05:21:03;;;;;;;;;;;18.10;94.20;;;;;;5970750;39;20056;-69
2021/07/18 05:25:06;;;;;;;13.13;3.57;;;18.20;92.70;;;;;;5968280;39;20306;-69
2021/07/18 05:29:08;;;;;;;17.45;3.90;;;18.20;93.60;;;;;;5961843;39;20055;-70
2021/07/18 05:33:10;;;;;;;10.40;3.72;;;18.30;93.90;;;;;;5972841;39;20402;-70
2021/07/18 05:37:12;;;;;;;;;;;18.30;93.70;;;;;;5961870;39;20119;-70
2021/07/18 05:41:14;;;;;;;9.83;3.73;;;18.40;92.50;;;;;;5963836;39;20184;-70
2021/07/18 05:45:16;;;;;;;13.30;3.10;;;18.30;93.80;;;;;;5955562;39;20054;-70
2021/07/18 05:49:18;;;;;;;14.70;3.40;;;18.50;93.90;;;;;;5961660;39;20044;-70
2021/07/18 05:53:20;;;;;;;12.38;3.25;;;18.60;94.10;;;;;;5968913;39;20052;-70
2021/07/18 05:57:22;;;;;;;;;;;18.70;93.90;;;;;;5963040;39;20137;-70
2021/07/18 06:01:28;;;;;;;10.85;2.90;;;18.70;93.70;;;;;;5970747;39;20588;-69
2021/07/18 06:05:29;;;;;;;13.70;3.00;;;18.80;93.70;;;;;;5971068;39;20533;-69
2021/07/18 06:09:31;;;;;;;10.60;2.60;;;18.90;94.00;;;;;;5970753;39;20069;-70
2021/07/18 06:13:33;;;;;;;15.18;3.30;;;18.90;93.80;;;;;;5967988;39;20047;-69
2021/07/18 06:17:37;;;;;;;8.65;2.85;;;19.00;93.80;;;;;;5967454;39;20443;-69
2021/07/18 06:21:39;;;;;;;10.02;2.60;;;19.10;93.80;;;;;;5964341;39;20466;-70
2021/07/18 06:25:40;;;;;;;10.70;2.30;;;19.20;93.70;;;;;;5964900;39;20057;-70
2021/07/18 06:29:42;;;;;;;10.65;2.33;;;19.30;93.70;;;;;;5960702;39;20057;-69
2021/07/18 06:33:44;;;;;;;;;;;19.50;93.60;;;;;;5969463;39;20095;-69
2021/07/18 06:37:46;;;;;;;12.23;2.28;;;19.70;92.60;;;;;;5964205;39;19979;-70
2021/07/18 06:41:48;;;;;;;6.28;2.00;;;19.70;93.10;;;;;;5949569;39;20066;-69
2021/07/18 06:45:50;;;;;;;7.80;1.92;;;19.70;93.20;;;;;;5965140;39;20059;-70
2021/07/18 06:49:52;;;;;;;;;;;19.90;93.20;;;;;;5956958;39;20048;-69
2021/07/18 06:53:54;;;;;;;;;;;20.00;92.20;;;;;;5957773;39;19939;-70
2021/07/18 06:58:03;;;;;;;6.15;1.85;;;20.10;92.70;;;;;;5965357;39;20340;-70
2021/07/18 07:02:06;;;;;;;5.85;1.75;;;20.20;92.70;;;;;;5958329;39;20042;-69
2021/07/18 07:06:09;;;;;;;5.85;1.92;;;20.50;92.40;;;;;;5964639;39;20056;-69
2021/07/18 07:10:12;;;;;;;;;;;20.60;92.10;;;;;;5957306;39;20421;-69
2021/07/18 07:14:14;;;;;;;4.93;1.52;;;20.70;91.70;;;;;;5964243;39;19947;-70
2021/07/18 07:18:15;;;;;;;;;;;20.90;92.10;;;;;;5954334;39;20057;-69
2021/07/18 07:22:17;;;;;;;4.20;1.40;;;21.00;91.70;;;;;;5957509;39;20102;-70
2021/07/18 07:26:19;;;;;;;6.05;1.65;;;21.20;91.60;;;;;;5965427;39;20062;-69
2021/07/18 07:30:21;;;;;;;6.10;1.60;;;21.30;91.60;;;;;;5958733;39;20066;-70
2021/07/18 07:34:23;;;;;;;;;;;21.50;91.50;;;;;;5968648;39;20087;-69
2021/07/18 07:38:25;;;;;;;10.95;1.25;;;21.70;91.50;;;;;;5955695;39;19942;-70
2021/07/18 07:42:27;;;;;;;;;;;21.90;91.00;;;;;;5967969;39;20118;-70
2021/07/18 07:46:29;;;;;;;7.18;1.33;;;22.00;90.90;;;;;;5966628;39;19944;-70
2021/07/18 07:50:31;;;;;;;5.20;1.40;;;22.10;90.30;;;;;;5958381;39;20044;-70
2021/07/18 07:54:33;;;;;;;8.15;1.55;;;22.20;90.40;;;;;;5949068;39;20032;-70
2021/07/18 07:58:35;;;;;;;;;;;22.30;90.60;;;;;;5967267;39;20137;-69
2021/07/18 08:02:37;;;;;;;;;;;22.40;90.50;;;;;;5957952;39;19944;-70
2021/07/18 08:06:39;;;;;;;4.88;1.50;;;22.40;90.20;;;;;;5958730;39;19968;-70
2021/07/18 08:10:41;;;;;;;;;;;22.40;90.30;;;;;;5949839;39;20400;-70
2021/07/18 08:14:43;;;;;;;5.50;1.17;;;22.40;90.40;;;;;;5948975;39;20501;-70
2021/07/18 08:18:45;;;;;;;;;;;22.40;90.10;;;;;;5966877;39;20052;-70
2021/07/18 08:22:48;;;;;;;3.42;1.10;;;22.40;90.10;;;;;;5957407;39;20305;-70
2021/07/18 08:26:50;;;;;;;5.95;1.50;;;22.50;90.00;;;;;;5967118;39;20055;-70
2021/07/18 08:30:52;;;;;;;;;;;22.60;89.90;;;;;;5960351;39;20247;-71
2021/07/18 08:34:54;;;;;;;3.65;1.20;;;22.70;90.20;;;;;;5968181;39;19976;-70
2021/07/18 08:38:56;;;;;;;5.65;1.50;;;22.70;88.70;;;;;;5957173;39;20055;-70
2021/07/18 08:42:59;;;;;;;9.77;1.73;;;22.80;88.90;;;;;;5959603;39;20835;-70
2021/07/18 08:47:01;;;;;;;3.17;1.42;;;22.90;89.20;;;;;;5956283;39;20798;-70
2021/07/18 08:51:03;;;;;;;3.78;1.20;;;23.00;87.80;;;;;;5968276;39;20080;-70
2021/07/18 08:55:06;;;;;;;5.88;1.13;;;23.10;88.20;;;;;;5967080;39;20113;-70
2021/07/18 08:59:10;;;;;;;4.57;1.23;;;23.10;87.30;;;;;;5966090;39;20051;-70
2021/07/18 09:03:16;;;;;;;3.85;1.42;;;23.10;87.80;;;;;;5965660;39;20429;-70
2021/07/18 09:07:18;;;;;;;4.38;1.33;;;23.20;87.00;;;;;;5959509;39;20088;-70
2021/07/18 09:11:23;;;;;;;5.55;1.30;;;23.30;87.10;;;;;;5967745;39;20051;-71
2021/07/18 09:15:40;;;;;;;4.22;1.30;;;23.30;86.10;;;;;;5949859;39;20055;-70
2021/07/18 09:19:44;;;;;;;4.13;1.13;;;23.30;86.00;;;;;;5969412;39;20058;-71
2021/07/18 09:23:46;;;;;;;8.95;1.80;;;23.20;86.80;;;;;;5959944;39;20118;-70
2021/07/18 09:33:04;;;;;;;6.35;1.35;;;23.10;86.40;;;;;;5963117;39;20159;-70
2021/07/18 09:37:13;;;;;;;3.72;1.08;;;23.00;86.40;;;;;;5966122;39;20070;-70
2021/07/18 09:41:17;;;;;;;3.15;1.25;;;23.10;86.60;;;;;;5953972;39;20076;-70
2021/07/18 09:45:22;;;;;;;6.68;1.60;;;23.20;85.60;;;;;;5958137;39;20121;-70
2021/07/18 09:49:34;;;;;;;4.93;1.23;;;23.30;85.50;;;;;;5967128;39;20086;-70
2021/07/18 09:53:36;;;;;;;6.15;1.52;;;23.20;85.80;;;;;;5953819;39;20056;-70
2021/07/18 09:57:42;;;;;;;5.95;1.40;;;23.20;86.20;;;;;;5970881;39;20051;-70
2021/07/18 10:01:53;;;;;;;4.78;1.50;;;23.10;86.20;;;;;;5968129;39;20047;-70
2021/07/18 10:06:19;;;;;;;6.47;1.40;;;23.10;85.80;;;;;;5954510;39;20068;-70
2021/07/18 10:10:21;;;;;;;9.48;2.00;;;23.20;86.30;;;;;;5968713;39;20443;-71
2021/07/18 10:14:23;;;;;;;8.02;1.73;;;23.10;85.60;;;;;;5962016;39;20060;-70
2021/07/18 10:18:25;;;;;;;7.15;2.03;;;23.00;85.40;;;;;;5952689;39;20608;-70
2021/07/18 10:22:28;;;;;;;10.30;2.08;;;23.20;85.50;;;;;;5969404;39;20059;-73
2021/07/18 10:26:30;;;;;;;7.13;1.90;;;23.40;83.60;;;;;;5970342;39;20132;-72
2021/07/18 10:30:34;;;;;;;6.18;2.05;;;23.50;83.60;;;;;;5962581;39;20052;-73
2021/07/18 10:34:37;;;;;;;4.55;2.40;;;23.50;82.10;;;;;;5972614;39;20059;-72
2021/07/18 10:38:39;;;;;;;8.05;2.40;;;23.70;82.10;;;;;;5958482;39;20044;-71
2021/07/18 10:42:41;;;;;;;9.05;2.75;;;23.80;82.30;;;;;;5968466;39;20078;-70
2021/07/18 10:46:43;;;;;;;6.97;2.50;;;23.80;81.20;;;;;;5970049;39;20063;-70
2021/07/18 10:50:50;;;;;;;7.97;2.80;;;23.70;82.30;;;;;;5965675;39;20109;-69
2021/07/18 10:54:52;;;;;;;8.52;2.53;;;23.80;82.10;;;;;;5960574;39;20047;-70
2021/07/18 10:58:54;;;;;;;9.18;2.83;;;24.00;82.00;;;;;;5967457;39;20056;-70
2021/07/18 11:03:08;;;;;;;11.80;2.83;;;23.90;81.70;;;;;;5969105;39;20040;-70
2021/07/18 11:07:28;;;;;;;9.30;2.72;;;24.00;80.40;;;;;;5959330;39;20427;-70
2021/07/18 11:11:59;;;;;;;9.45;2.65;;;23.90;80.80;;;;;;5960494;39;20058;-70
2021/07/18 11:16:02;;;;;;;9.35;3.08;;;23.90;82.10;;;;;;5956862;39;20062;-70
2021/07/18 11:20:04;;;;;;;14.75;3.10;;;23.90;81.90;;;;;;5957094;39;20059;-70
2021/07/18 11:24:06;;;;;;;6.68;3.28;;;23.80;80.90;;;;;;5961573;39;20301;-72
2021/07/18 11:28:39;;;;;;;9.07;3.42;;;23.70;81.40;;;;;;5959486;39;20036;-72
2021/07/18 11:32:41;;;;;;;12.25;3.80;;;23.70;81.60;;;;;;5955773;39;20113;-72
2021/07/18 11:36:43;;;;;;;10.35;3.58;;;23.50;81.40;;;;;;5952757;39;20748;-73
2021/07/18 11:40:45;;;;;;;10.77;4.03;;;23.40;81.60;;;;;;5944344;39;20368;-74
2021/07/18 11:44:47;;;;;;;10.38;4.03;;;23.20;82.20;;;;;;5954727;39;20076;-72
2021/07/18 11:48:54;;;;;;;8.38;3.60;;;23.20;82.10;;;;;;5964852;39;20314;-72
2021/07/18 11:52:58;;;;;;;13.60;4.70;;;23.10;81.60;;;;;;5949994;39;20051;-72
2021/07/18 11:57:01;;;;;;;14.18;5.05;;;23.10;81.20;;;;;;5967447;39;20160;-72
2021/07/18 12:01:03;;;;;;;12.93;4.43;;;22.70;81.80;;;;;;5968452;39;20055;-73
2021/07/18 12:05:06;;;;;;;10.68;4.13;;;22.50;82.10;;;;;;5966599;39;20164;-71
2021/07/18 12:09:17;;;;;;;12.43;3.80;;;22.30;82.20;;;;;;5967065;39;20289;-72
2021/07/18 12:13:33;;;;;;;9.63;3.90;;;22.20;82.50;;;;;;5958421;39;20877;-72
2021/07/18 12:17:35;;;;;;;10.10;4.35;;;22.30;81.50;;;;;;5957482;39;20370;-73
2021/07/18 12:21:48;;;;;;;;;;;22.40;81.90;;;;;;5966516;39;20106;-72
2021/07/18 12:25:56;;;;;;;12.02;4.25;;;22.60;81.30;;;;;;5963556;39;19980;-73
2021/07/18 12:30:03;;;;;;;11.25;4.18;;;22.60;81.80;;;;;;5966913;39;20059;-73
2021/07/18 12:34:06;;;;;;;8.07;3.88;;;22.70;81.40;;;;;;5960481;39;20063;-73
2021/07/18 12:38:08;;;;;;;13.93;4.28;;;22.80;81.80;;;;;;5961347;39;20522;-73
2021/07/18 12:42:44;;;;;;;12.00;3.83;;;23.00;81.30;;;;;;5953721;39;20088;-73
2021/07/18 12:46:46;;;;;;;11.55;3.97;;;23.00;80.80;;;;;;5965527;39;20043;-72
2021/07/18 12:50:48;;;;;;;13.57;4.60;;;22.80;81.20;;;;;;5957352;39;20067;-72
2021/07/18 12:54:50;;;;;;;13.43;4.43;;;22.90;81.00;;;;;;5959229;39;20062;-72
2021/07/18 12:58:52;;;;;;;11.18;4.20;;;23.00;79.90;;;;;;5967124;39;20043;-73
2021/07/18 13:03:12;;;;;;;8.45;3.80;;;23.00;79.70;;;;;;5950314;39;20043;-73
2021/07/18 13:07:14;;;;;;;11.25;3.72;;;23.20;79.60;;;;;;5965994;39;20066;-72
2021/07/18 13:11:39;;;;;;;13.27;4.00;;;23.20;79.90;;;;;;5956981;39;20128;-72
2021/07/18 13:15:41;;;;;;;7.13;3.50;;;23.30;79.70;;;;;;5960218;39;20055;-72
2021/07/18 13:20:05;;;;;;;7.95;3.90;;;23.50;78.10;;;;;;5957696;39;20051;-72
2021/07/18 13:24:08;;;;;;;6.50;3.42;;;23.50;77.60;;;;;;5967980;39;20048;-72
2021/07/18 13:28:11;;;;;;;6.22;2.95;;;23.40;78.00;;;;;;5964711;39;20137;-73
2021/07/18 13:32:19;;;;;;;9.80;3.40;;;23.30;77.50;;;;;;5969306;39;20056;-73
2021/07/18 13:36:24;;;;;;;6.22;3.00;;;23.00;78.00;;;;;;5960682;39;20455;-72
2021/07/18 13:40:37;;;;;;;8.75;2.78;;;23.00;77.70;;;;;;5967639;39;20342;-73
2021/07/18 13:44:40;;;;;;;7.70;3.38;;;22.90;78.30;;;;;;5966073;39;20051;-72
2021/07/18 13:48:42;;;;;;;7.75;2.97;;;22.80;78.20;;;;;;5960312;39;20428;-73
2021/07/18 13:52:44;;;;;;;6.78;3.20;;;22.90;77.80;;;;;;5969039;39;20055;-72
2021/07/18 13:56:45;;;;;;;7.22;2.83;;;22.90;77.80;;;;;;5952172;39;20048;-72
2021/07/18 14:00:48;;;;;;;9.52;2.88;;;23.00;77.00;;;;;;5970612;39;20051;-72
2021/07/18 14:04:49;;;;;;;6.18;3.20;;;22.80;77.90;;;;;;5953378;39;20484;-72
2021/07/18 14:08:52;;;;;;;9.32;3.53;;;22.70;77.30;;;;;;5961972;39;20059;-72
2021/07/18 14:12:54;;;;;;;9.05;3.80;;;22.80;76.80;;;;;;5966898;39;20099;-72
2021/07/18 14:16:56;;;;;;;7.50;3.53;;;22.70;77.00;;;;;;5956685;39;20051;-71
2021/07/18 14:20:59;;;;;;;7.22;2.90;;;22.60;76.40;;;;;;5969288;39;20302;-72
2021/07/18 14:25:01;;;;;;;10.80;2.55;;;22.50;76.70;;;;;;5966065;39;20444;-72
2021/07/18 14:29:05;;;;;;;5.72;2.42;;;22.50;75.60;;;;;;5955066;39;20131;-72
2021/07/18 14:33:10;;;;;;;12.10;2.50;;;22.50;75.70;;;;;;5967391;39;20036;-71
2021/07/18 14:37:12;;;;;;;11.30;2.67;;;22.50;76.10;;;;;;5956339;39;20051;-72
2021/07/18 14:41:13;;;;;;;6.78;1.85;;;22.50;75.90;;;;;;5957748;39;20064;-72
2021/07/18 14:45:16;;;;;;;;;;;22.40;76.00;;;;;;5969085;39;20077;-73
2021/07/18 14:49:18;;;;;;;7.10;1.80;;;22.30;71.90;;;;;;5965515;39;19932;-72
2021/07/18 14:53:20;;;;;;;;;;;22.30;74.80;;;;;;5949560;39;20065;-72
2021/07/18 14:57:22;;;;;;;8.05;2.05;;;22.20;74.90;;;;;;5948054;39;19948;-72
2021/07/18 15:01:23;;;;;;;8.98;2.17;;;22.10;74.50;;;;;;5957380;39;20107;-71
2021/07/18 15:05:26;;;;;;;10.18;2.50;;;22.00;74.50;;;;;;5956300;39;20146;-72
2021/07/18 15:09:28;;;;;;;;;;;22.00;74.00;;;;;;5969385;39;20320;-72
2021/07/18 15:13:30;;;;;;;11.55;2.60;;;21.80;74.60;;;;;;5966852;39;20372;-72
2021/07/18 15:17:32;;;;;;;10.82;2.10;;;21.80;74.30;;;;;;5965904;39;20475;-72
2021/07/18 15:21:34;;;;;;;11.75;2.20;;;21.60;74.30;;;;;;5956915;39;20419;-72
2021/07/18 15:25:37;;;;;;;12.52;3.17;;;21.60;74.20;;;;;;5966860;39;20036;-71
2021/07/18 15:29:39;;;;;;;11.98;2.90;;;21.50;74.30;;;;;;5956556;39;20051;-72
2021/07/18 15:33:40;;;;;;;;;;;21.50;73.60;;;;;;5966158;39;20283;-72
2021/07/18 15:37:42;;;;;;;11.50;2.53;;;21.40;75.10;;;;;;5957544;39;19940;-71
2021/07/18 15:41:45;;;;;;;12.23;3.22;;;21.30;74.20;;;;;;5967642;39;20500;-72
2021/07/18 15:45:47;;;;;;;16.40;3.25;;;21.20;76.00;;;;;;5965049;39;20408;-71
2021/07/18 15:49:50;;;;;;;15.88;3.30;;;21.00;76.20;;;;;;5954679;39;20052;-72
2021/07/18 15:53:52;;;;;;;16.00;2.90;;;20.90;76.30;;;;;;5955972;39;20177;-71
2021/07/18 15:57:54;;;;;;;;;;;20.80;75.80;;;;;;5963355;39;20132;-73
2021/07/18 16:01:55;;;;;;;17.95;3.28;;;20.80;74.10;;;;;;5947775;39;19940;-72
2021/07/18 16:05:58;;;;;;;13.45;3.03;;;20.80;75.20;;;;;;5956016;39;20292;-72
2021/07/18 16:10:00;;;;;;;13.82;3.03;;;20.80;74.40;;;;;;5963883;39;20521;-72
2021/07/18 16:14:03;;;;;;;14.93;3.35;;;20.70;75.10;;;;;;5962484;39;20063;-72
2021/07/18 16:18:05;;;;;;;14.32;2.88;;;20.60;75.20;;;;;;5962987;39;20043;-73
2021/07/18 16:22:08;;;;;;;;;;;20.40;75.30;;;;;;5968823;39;20039;-72
2021/07/18 16:26:10;;;;;;;13.68;3.40;;;20.10;73.70;;;;;;5963575;39;19992;-72
2021/07/18 16:30:13;;;;;;;;;;;20.00;75.60;;;;;;5966214;39;20054;-70
2021/07/18 16:34:15;;;;;;;19.63;3.65;;;20.20;75.10;;;;;;5960340;39;20248;-71
2021/07/18 16:38:20;;;;;;;;;;;20.20;75.60;;;;;;5961864;39;20540;-72
2021/07/18 16:42:22;;;;;;;14.93;3.50;;;20.20;75.60;;;;;;5952987;39;20012;-71
2021/07/18 16:46:24;;;;;;;10.88;3.00;;;20.10;75.60;;;;;;5968921;39;20051;-73
2021/07/18 16:50:27;;;;;;;12.95;3.30;;;20.10;75.70;;;;;;5958556;39;20051;-72
2021/07/18 16:54:28;;;;;;;;;;;20.10;76.10;;;;;;5947007;39;20152;-72
2021/07/18 16:58:31;;;;;;;18.92;3.90;;;19.90;76.10;;;;;;5969596;39;20013;-72
2021/07/18 17:02:32;;;;;;;16.73;4.00;;;19.90;77.20;;;;;;5961744;39;20122;-72
2021/07/18 17:06:35;;;;;;;14.48;3.67;;;19.80;77.60;;;;;;5950004;39;20499;-73
2021/07/18 17:10:37;;;;;;;21.60;4.45;;;19.80;77.90;;;;;;5961287;39;20435;-72
2021/07/18 17:14:39;;;;;;;19.23;3.47;;;19.70;77.70;;;;;;5953188;39;20059;-71
2021/07/18 17:18:41;;;;;;;13.02;4.13;;;19.80;76.70;;;;;;5968260;39;20042;-72
2021/07/18 17:22:43;;;;;;;17.00;3.83;;;19.80;76.20;;;;;;5966807;39;20415;-72
2021/07/18 17:26:45;;;;;;;18.55;4.03;;;19.60;76.30;;;;;;5955078;39;20073;-71
2021/07/18 17:30:47;;;;;;;;;;;19.50;76.60;;;;;;5964379;39;20402;-72
2021/07/18 17:34:49;;;;;;;13.70;3.20;;;19.40;76.70;;;;;;5965561;39;19950;-72
2021/07/18 17:38:51;;;;;;;;;;;19.30;77.00;;;;;;5965938;39;20128;-71
2021/07/18 17:42:53;;;;;;;12.68;3.45;;;19.20;77.30;;;;;;5965913;39;19936;-71
2021/07/18 17:46:55;;;;;;;13.25;3.50;;;19.20;77.30;;;;;;5965373;39;20101;-71
2021/07/18 17:50:57;;;;;;;;;;;19.10;76.90;;;;;;5959586;39;20052;-71
2021/07/18 17:54:58;;;;;;;10.75;3.03;;;19.10;77.30;;;;;;5969161;39;20283;-71
2021/07/18 17:59:00;;;;;;;13.43;3.08;;;19.10;76.50;;;;;;5967129;39;20423;-71
2021/07/18 18:03:05;;;;;;;12.88;2.95;;;19.00;76.50;;;;;;5967097;39;20062;-72
2021/07/18 18:07:07;;;;;;;16.02;3.30;;;18.90;76.70;;;;;;5955571;39;20054;-72
2021/07/18 18:11:13;;;;;;;14.80;3.78;;;18.80;77.20;;;;;;5948880;39;20362;-71
2021/07/18 18:15:17;;;;;;;;;;;18.70;77.50;;;;;;5970263;39;20079;-71
2021/07/18 18:19:22;;;;;;;12.70;2.67;;;18.50;77.60;;;;;;5961839;39;19935;-71
2021/07/18 18:23:27;;;;;;;8.13;2.53;;;18.40;77.90;;;;;;5967308;39;20136;-72
2021/07/18 18:27:29;;;;;;;13.82;3.10;;;18.50;77.20;;;;;;5968859;39;20063;-71
2021/07/18 18:31:31;;;;;;;;;;;18.50;76.70;;;;;;5970180;39;20036;-71
2021/07/18 18:35:34;;;;;;;9.55;2.42;;;18.30;77.00;;;;;;5966407;39;19940;-74
2021/07/18 18:39:36;;;;;;;12.48;2.15;;;18.30;77.00;;;;;;5957958;39;20360;-72
2021/07/18 18:43:38;;;;;;;10.07;2.67;;;18.20;77.00;;;;;;5955141;39;20401;-71
2021/07/18 18:47:40;;;;;;;;;;;18.10;77.10;;;;;;5961060;39;20414;-73
2021/07/18 18:51:43;;;;;;;11.48;2.78;;;18.00;77.20;;;;;;5969951;39;19939;-72
2021/07/18 18:55:45;;;;;;;11.38;2.47;;;17.70;77.40;;;;;;5971836;39;20052;-72
2021/07/18 18:59:47;;;;;;;13.48;2.83;;;18.40;78.00;;;;;;5967460;39;20128;-72
2021/07/18 19:03:49;;;;;;;9.15;3.15;;;17.90;78.10;;;;;;5971293;39;20114;-72
2021/07/18 19:07:51;;;;;;;;;;;17.70;78.30;;;;;;5958238;39;20043;-72
2021/07/18 19:11:53;;;;;;;12.10;2.60;;;17.70;78.10;;;;;;5964940;39;20518;-72
2021/07/18 19:15:54;;;;;;;;;;;17.60;78.50;;;;;;5972064;39;20043;-71
2021/07/18 19:19:56;;;;;;;13.02;2.95;;;17.60;78.10;;;;;;5970917;39;20188;-72
2021/07/18 19:23:59;;;;;;;;;;;17.50;78.50;;;;;;5959797;39;20039;-72
2021/07/18 19:28:01;;;;;;;11.38;2.80;;;17.50;78.10;;;;;;5968504;39;19939;-75
2021/07/18 19:32:04;;;;;;;;;;;17.40;78.40;;;;;;5972772;39;20459;-73
2021/07/18 19:36:07;;;;;;;14.65;3.40;;;17.40;77.90;;;;;;5972706;39;20063;-72
2021/07/18 19:40:11;;;;;;;10.32;3.22;;;17.30;78.40;;;;;;5960509;39;20058;-72
2021/07/18 19:44:14;;;;;;;10.18;3.10;;;17.30;78.30;;;;;;5972825;39;20087;-74
2021/07/18 19:48:16;;;;;;;11.13;3.92;;;17.20;78.30;;;;;;5952540;39;20419;-75
2021/07/18 19:52:18;;;;;;;;;;;17.10;78.10;;;;;;5969981;39;20446;-72
2021/07/18 19:56:20;;;;;;;8.93;3.70;;;17.10;77.80;;;;;;5970597;39;20054;-72
2021/07/18 20:00:21;;;;;;;11.00;4.28;;;17.00;78.10;;;;;;5960975;39;20469;-72
2021/07/18 20:04:23;;;;;;;;;;;17.00;78.20;;;;;;5962398;39;20152;-73
2021/07/18 20:08:25;;;;;;;13.77;4.37;;;16.90;77.70;;;;;;5963457;39;19971;-73
2021/07/18 20:12:27;;;;;;;7.82;3.70;;;16.90;78.30;;;;;;5970604;39;20124;-72
2021/07/18 20:16:30;;;;;;;10.65;4.82;;;16.80;78.40;;;;;;5970187;39;20047;-72
2021/07/18 20:20:32;;;;;;;11.18;4.20;;;16.80;78.40;;;;;;5970560;39;20055;-75
2021/07/18 20:24:34;;;;;;;;;;;16.80;78.40;;;;;;5958752;39;20440;-72
2021/07/18 20:28:36;;;;;;;10.07;4.00;;;16.70;77.70;;;;;;5953294;39;19932;-73
2021/07/18 20:32:38;;;;;;;11.80;4.20;;;16.70;78.40;;;;;;5971661;39;20039;-72
2021/07/18 20:36:40;;;;;;;9.13;3.80;;;16.70;78.50;;;;;;5961153;39;20044;-72
2021/07/18 20:40:42;;;;;;;13.38;3.92;;;16.60;78.60;;;;;;5970728;39;20048;-73
2021/07/18 20:44:45;;;;;;;12.77;4.30;;;16.70;78.80;;;;;;5959365;39;20059;-73
2021/07/18 20:48:47;;;;;;;10.77;4.40;;;16.60;78.80;;;;;;5961916;39;20054;-73
2021/07/18 20:52:49;;;;;;;15.80;4.32;;;16.70;79.00;;;;;;5962203;39;20059;-74
2021/07/18 20:56:51;;;;;;;9.68;3.97;;;16.70;79.00;;;;;;5969265;39;20055;-72
2021/07/18 21:00:53;;;;;;;;;;;16.60;79.10;;;;;;5960600;39;20144;-72
2021/07/18 21:04:55;;;;;;;10.65;3.72;;;16.70;78.20;;;;;;5960267;39;19947;-74
2021/07/18 21:08:57;;;;;;;12.48;4.10;;;16.70;79.30;;;;;;5961202;39;20056;-75
2021/07/18 21:12:58;;;;;;;11.30;4.40;;;16.60;79.30;;;;;;5963854;39;20061;-72
2021/07/18 21:17:00;;;;;;;11.18;4.55;;;16.60;79.50;;;;;;5972054;39;20471;-74
2021/07/18 21:21:03;;;;;;;12.38;4.80;;;16.60;79.60;;;;;;5974184;39;20052;-73
2021/07/18 21:25:06;;;;;;;12.85;4.43;;;16.60;79.90;;;;;;5965768;39;20044;-71